Time;durP1;ratioP1;P1;durP2;ratioP2;P2;SDS_P1;SDS_P2;PMS_P1;PMS_P2;Temp;Humidity;BMP_temperature;BMP_pressure;BME280_temperature;BME280_humidity;BME280_pressure;Samples;Min_cycle;Max_cycle;Signal;HPM_P1;HPM_P2
2022/09/20 21:32:13;;;;;;;27.75;11.95;;;;;;;;;;1819574;78;22707;-76
2022/09/20 21:34:39;;;;;;;27.90;11.48;;;;;;;;;;1792001;80;21042;-78
2022/09/20 21:37:04;;;;;;;39.83;11.57;;;;;;;;;;1792131;80;21207;-79
2022/09/20 21:39:30;;;;;;;29.92;10.40;;;;;;;;;;1792355;80;20982;-78
2022/09/20 21:41:56;;;;;;;28.77;9.60;;;;;;;;;;1761538;80;21384;-78
2022/09/20 21:44:22;;;;;;;24.82;10.48;;;;;;;;;;1792066;80;21106;-78
2022/09/20 21:46:48;;;;;;;23.02;10.25;;;;;;;;;;1792365;80;20876;-79
2022/09/20 21:49:14;;;;;;;22.52;10.30;;;;;;;;;;1792085;80;21291;-79
2022/09/20 21:51:41;;;;;;;25.45;10.38;;;;;;;;;;1792287;80;20900;-79
2022/09/20 21:54:08;;;;;;;26.80;10.50;;;;;;;;;;1790349;80;21525;-79
2022/09/20 21:56:35;;;;;;;22.62;9.53;;;;;;;;;;1786211;80;20996;-78
2022/09/20 21:59:03;;;;;;;24.52;9.93;;;;;;;;;;1785850;80;22095;-79
2022/09/20 22:01:33;;;;;;;22.40;10.15;;;;;;;;;;1785529;80;21210;-79
2022/09/20 22:04:01;;;;;;;35.60;13.70;;;;;;;;;;1754703;80;21004;-79
2022/09/20 22:06:29;;;;;;;37.10;12.73;;;;;;;;;;1785749;80;22253;-79
2022/09/20 22:09:00;;;;;;;33.73;11.48;;;;;;;;;;1785905;80;22100;-79
2022/09/20 22:11:28;;;;;;;22.27;10.58;;;;;;;;;;1786178;80;21038;-79
2022/09/20 22:13:54;;;;;;;34.33;12.43;;;;;;;;;;1785459;80;21191;-78
2022/09/20 22:16:23;;;;;;;31.70;12.82;;;;;;;;;;1785817;80;21000;-78
2022/09/20 22:18:49;;;;;;;31.35;11.28;;;;;;;;;;1785730;80;21490;-78
2022/09/20 22:21:18;;;;;;;24.02;10.65;;;;;;;;;;1785828;80;21062;-78
2022/09/20 22:23:50;;;;;;;27.05;11.90;;;;;;;;;;1781327;80;21530;-79
2022/09/20 22:26:18;;;;;;;27.02;11.00;;;;;;;;;;1755108;80;22083;-79
2022/09/20 22:28:44;;;;;;;30.23;11.20;;;;;;;;;;1785772;80;20988;-79
2022/09/20 22:31:15;;;;;;;34.88;12.37;;;;;;;;;;1790910;79;21125;-78
2022/09/20 22:33:47;;;;;;;30.45;11.57;;;;;;;;;;1797381;79;21015;-79
2022/09/20 22:36:15;;;;;;;27.27;11.48;;;;;;;;;;1747421;82;21062;-79
2022/09/20 22:38:43;;;;;;;26.42;11.00;;;;;;;;;;1747406;82;22089;-79
2022/09/20 22:41:10;;;;;;;26.68;10.60;;;;;;;;;;1747262;82;21055;-79
2022/09/20 22:43:36;;;;;;;27.82;10.70;;;;;;;;;;1747282;82;21570;-79
2022/09/20 22:46:04;;;;;;;29.23;10.55;;;;;;;;;;1747455;82;20864;-78
2022/09/20 22:48:31;;;;;;;26.95;10.10;;;;;;;;;;1718107;83;21075;-78
2022/09/20 22:51:03;;;;;;;25.02;9.93;;;;;;;;;;1718152;83;21062;-78
2022/09/20 22:53:30;;;;;;;27.60;11.50;;;;;;;;;;1689335;84;21098;-78
2022/09/20 22:56:17;;;;;;;21.12;9.85;;;;;;;;;;1689268;84;21066;-78
2022/09/20 22:58:45;;;;;;;27.22;10.03;;;;;;;;;;1609570;88;21060;-78
2022/09/20 23:01:13;;;;;;;20.35;9.70;;;;;;;;;;1629459;88;21100;-77
2022/09/20 23:03:44;;;;;;;21.55;9.73;;;;;;;;;;1550777;92;21191;-78
2022/09/20 23:06:16;;;;;;;25.65;10.08;;;;;;;;;;1539746;93;21075;-77
2022/09/20 23:08:42;;;;;;;21.45;9.33;;;;;;;;;;1491310;94;21254;-78
2022/09/20 23:11:08;;;;;;;21.50;8.90;;;;;;;;;;1491778;96;21111;-78
2022/09/20 23:13:34;;;;;;;20.50;8.93;;;;;;;;;;1502658;94;21145;-78
2022/09/20 23:15:59;;;;;;;18.40;8.68;;;;;;;;;;1516236;94;21194;-78
2022/09/20 23:18:26;;;;;;;24.07;8.50;;;;;;;;;;1516119;93;20955;-78
2022/09/20 23:21:01;;;;;;;23.22;9.50;;;;;;;;;;1516068;94;21582;-78
2022/09/20 23:23:28;;;;;;;21.00;9.88;;;;;;;;;;1516096;93;21072;-78
2022/09/20 23:25:54;;;;;;;21.27;9.25;;;;;;;;;;1516317;93;21575;-78
2022/09/20 23:28:26;;;;;;;18.87;8.33;;;;;;;;;;1516156;93;21249;-78
2022/09/20 23:30:50;;;;;;;16.57;8.65;;;;;;;;;;1500066;94;21146;-78
2022/09/20 23:33:16;;;;;;;16.52;8.55;;;;;;;;;;1495945;93;21113;-77
2022/09/20 23:35:43;;;;;;;19.25;8.78;;;;;;;;;;1509762;93;20995;-78
2022/09/20 23:38:09;;;;;;;26.42;9.03;;;;;;;;;;1530106;92;21676;-77
2022/09/20 23:40:34;;;;;;;18.27;8.73;;;;;;;;;;1544139;90;21153;-77
2022/09/20 23:43:00;;;;;;;23.77;8.83;;;;;;;;;;1557973;90;21033;-78
2022/09/20 23:45:26;;;;;;;23.05;8.95;;;;;;;;;;1584212;90;21006;-78
2022/09/20 23:47:52;;;;;;;19.40;8.48;;;;;;;;;;1584312;90;21006;-78
2022/09/20 23:50:18;;;;;;;16.97;7.95;;;;;;;;;;1595340;89;20979;-78
2022/09/20 23:52:44;;;;;;;19.52;7.90;;;;;;;;;;1640261;85;21513;-78
2022/09/20 23:55:10;;;;;;;20.23;8.58;;;;;;;;;;1644879;85;20933;-78
2022/09/20 23:57:36;;;;;;;18.95;8.43;;;;;;;;;;1645083;87;20997;-77
